createdAt,value
2022-07-25T00:00:26.451Z,2.60
2022-07-25T00:02:53.414Z,2.50
2022-07-25T00:05:20.932Z,2.70
2022-07-25T00:07:47.939Z,2.10
2022-07-25T00:10:14.889Z,2.65
2022-07-25T00:12:42.331Z,2.47
2022-07-25T00:15:09.929Z,2.40
2022-07-25T00:17:36.897Z,2.10
2022-07-25T00:20:05.438Z,2.33
2022-07-25T00:22:32.611Z,2.47
2022-07-25T00:24:59.572Z,2.45
2022-07-25T00:27:26.654Z,2.80
2022-07-25T00:29:53.551Z,2.40
2022-07-25T00:32:20.460Z,2.50
2022-07-25T00:34:47.429Z,2.47
2022-07-25T00:37:14.286Z,2.22
2022-07-25T00:39:41.386Z,2.50
2022-07-25T00:42:08.304Z,2.45
2022-07-25T00:44:35.263Z,2.65
2022-07-25T00:47:02.271Z,2.70
2022-07-25T00:49:29.287Z,2.70
2022-07-25T00:51:56.421Z,2.63
2022-07-25T00:54:23.448Z,2.63
2022-07-25T00:56:51.328Z,2.60
2022-07-25T00:59:18.691Z,2.17
2022-07-25T01:01:48.311Z,2.40
2022-07-25T01:04:16.411Z,2.75
2022-07-25T01:06:43.982Z,2.88
2022-07-25T01:09:11.487Z,2.92
2022-07-25T01:11:38.818Z,2.95
2022-07-25T01:14:06.244Z,3.00
2022-07-25T01:16:33.655Z,3.00
2022-07-25T01:19:00.740Z,3.03
2022-07-25T01:21:27.850Z,3.17
2022-07-25T01:23:54.836Z,2.83
2022-07-25T01:26:22.155Z,3.75
2022-07-25T01:28:49.081Z,3.30
2022-07-25T01:31:16.051Z,3.60
2022-07-25T01:33:43.092Z,3.58
2022-07-25T01:36:10.101Z,3.45
2022-07-25T01:38:36.986Z,3.90
2022-07-25T01:41:04.180Z,3.67
2022-07-25T01:43:31.268Z,3.92
2022-07-25T01:45:58.150Z,3.70
2022-07-25T01:48:26.068Z,4.03
2022-07-25T01:50:53.370Z,3.83
2022-07-25T01:53:21.540Z,3.67
2022-07-25T01:55:48.630Z,4.30
2022-07-25T01:58:15.569Z,4.68
2022-07-25T02:00:42.507Z,4.90
2022-07-25T02:03:27.916Z,4.90
2022-07-25T02:05:54.996Z,4.50
2022-07-25T02:08:23.342Z,4.93
2022-07-25T02:10:50.327Z,4.40
2022-07-25T02:13:17.194Z,4.78
2022-07-25T02:15:44.197Z,5.50
2022-07-25T02:18:11.275Z,4.95
2022-07-25T02:20:38.192Z,5.03
2022-07-25T02:23:06.023Z,4.90
2022-07-25T02:25:33.673Z,5.55
2022-07-25T02:28:00.525Z,6.20
2022-07-25T02:30:28.356Z,6.43
2022-07-25T02:32:55.420Z,5.75
2022-07-25T02:35:22.421Z,5.90
2022-07-25T02:37:49.427Z,5.03
2022-07-25T02:40:16.499Z,4.43
2022-07-25T02:42:43.334Z,4.72
2022-07-25T02:45:10.842Z,4.13
2022-07-25T02:47:38.351Z,4.10
2022-07-25T02:50:06.118Z,2.95
2022-07-25T02:52:32.933Z,2.70
2022-07-25T02:55:02.211Z,2.67
2022-07-25T02:57:30.728Z,2.97
2022-07-25T02:59:57.567Z,2.70
2022-07-25T03:02:24.631Z,2.75
2022-07-25T03:04:51.476Z,2.97
2022-07-25T03:07:18.385Z,3.03
2022-07-25T03:09:45.383Z,3.30
2022-07-25T03:12:12.312Z,3.20
2022-07-25T03:14:39.159Z,2.63
2022-07-25T03:17:06.121Z,3.85
2022-07-25T03:19:33.030Z,3.65
2022-07-25T03:21:59.923Z,3.45
2022-07-25T03:24:26.817Z,3.40
2022-07-25T03:26:55.020Z,3.72
2022-07-25T03:29:21.912Z,3.70
2022-07-25T03:31:49.009Z,3.38
2022-07-25T03:34:15.918Z,4.00
2022-07-25T03:36:42.817Z,3.95
2022-07-25T03:39:09.767Z,4.07
2022-07-25T03:41:36.667Z,4.22
2022-07-25T03:44:04.833Z,3.58
2022-07-25T03:46:32.024Z,4.32
2022-07-25T03:48:59.084Z,4.40
2022-07-25T03:51:26.063Z,3.97
2022-07-25T03:54:01.859Z,3.88
2022-07-25T03:56:40.273Z,3.58
2022-07-25T03:59:12.175Z,4.07
2022-07-25T04:01:39.639Z,4.35
2022-07-25T04:04:07.607Z,4.25
2022-07-25T04:06:34.788Z,4.43
2022-07-25T04:09:02.150Z,4.53
2022-07-25T04:11:30.840Z,4.45
2022-07-25T04:13:58.842Z,4.40
2022-07-25T04:16:25.854Z,3.95
2022-07-25T04:18:56.304Z,5.00
2022-07-25T04:21:24.971Z,4.22
2022-07-25T04:23:52.474Z,4.40
2022-07-25T04:26:19.865Z,4.85
2022-07-25T04:28:47.170Z,4.50
2022-07-25T04:31:14.508Z,5.00
2022-07-25T04:33:41.749Z,4.20
2022-07-25T04:36:08.932Z,3.83
2022-07-25T04:38:36.185Z,4.63
2022-07-25T04:41:04.295Z,4.85
2022-07-25T04:43:31.390Z,5.85
2022-07-25T04:45:58.347Z,5.28
2022-07-25T04:48:25.394Z,5.63
2022-07-25T04:50:52.714Z,6.40
2022-07-25T04:53:19.743Z,6.05
2022-07-25T04:55:46.596Z,6.43
2022-07-25T04:58:13.538Z,5.82
2022-07-25T05:00:40.424Z,5.90
2022-07-25T05:03:07.380Z,6.07
2022-07-25T05:05:34.840Z,6.13
2022-07-25T05:08:01.829Z,5.13
2022-07-25T05:10:29.785Z,4.68
2022-07-25T05:12:57.318Z,4.38
2022-07-25T05:15:24.758Z,4.30
2022-07-25T05:17:53.018Z,4.18
2022-07-25T05:20:19.983Z,4.32
2022-07-25T05:22:47.227Z,3.42
2022-07-25T05:25:14.478Z,3.90
2022-07-25T05:27:41.968Z,3.30
2022-07-25T05:30:11.479Z,3.40
2022-07-25T05:32:39.406Z,3.45
2022-07-25T05:35:08.239Z,3.00
2022-07-25T05:37:37.414Z,4.25
2022-07-25T05:40:06.284Z,3.63
2022-07-25T05:42:33.387Z,3.50
2022-07-25T05:45:00.850Z,3.50
2022-07-25T05:47:27.781Z,3.58
2022-07-25T05:49:55.118Z,3.40
2022-07-25T05:52:22.672Z,3.47
2022-07-25T05:54:50.090Z,4.47
2022-07-25T05:57:17.026Z,4.10
2022-07-25T05:59:43.935Z,3.58
2022-07-25T06:02:10.974Z,3.33
2022-07-25T06:04:38.037Z,10.48
2022-07-25T06:07:04.920Z,3.17
2022-07-25T06:09:32.055Z,8.43
2022-07-25T06:12:01.165Z,3.85
2022-07-25T06:14:29.661Z,5.82
2022-07-25T06:16:57.186Z,4.93
2022-07-25T06:19:24.307Z,6.47
2022-07-25T06:21:51.218Z,7.25
2022-07-25T06:24:18.346Z,10.43
2022-07-25T06:26:45.360Z,5.35
2022-07-25T06:29:12.464Z,5.47
2022-07-25T06:31:39.846Z,3.72
2022-07-25T06:34:07.290Z,3.50
2022-07-25T06:36:34.947Z,3.90
2022-07-25T06:39:02.603Z,3.72
2022-07-25T06:41:29.639Z,3.80
2022-07-25T06:43:56.544Z,3.42
2022-07-25T06:46:23.555Z,3.63
2022-07-25T06:48:50.503Z,3.38
2022-07-25T06:51:17.475Z,4.43
2022-07-25T06:53:44.305Z,4.38
2022-07-25T06:56:15.833Z,5.97
2022-07-25T06:58:44.866Z,3.88
2022-07-25T07:01:12.093Z,3.85
2022-07-25T07:03:40.232Z,4.00
2022-07-25T07:06:08.724Z,3.65
2022-07-25T07:08:35.951Z,3.40
2022-07-25T07:11:02.783Z,3.67
2022-07-25T07:13:29.802Z,3.70
2022-07-25T07:15:56.858Z,3.67
2022-07-25T07:18:23.789Z,4.38
2022-07-25T07:20:51.733Z,4.30
2022-07-25T07:23:19.264Z,3.70
2022-07-25T07:25:47.110Z,4.15
2022-07-25T07:28:14.964Z,3.95
2022-07-25T07:33:29.351Z,4.07
2022-07-25T07:35:57.099Z,4.18
2022-07-25T07:38:25.090Z,4.18
2022-07-25T07:40:52.630Z,4.25
2022-07-25T07:43:19.972Z,3.47
2022-07-25T07:45:46.991Z,4.07
2022-07-25T07:48:15.102Z,4.75
2022-07-25T07:50:42.080Z,4.25
2022-07-25T07:53:08.962Z,4.80
2022-07-25T07:55:45.240Z,4.57
2022-07-25T07:58:17.449Z,3.88
2022-07-25T08:00:46.482Z,5.00
2022-07-25T08:03:13.663Z,4.10
2022-07-25T08:05:43.050Z,4.13
2022-07-25T08:08:11.792Z,4.50
2022-07-25T08:10:41.013Z,4.07
2022-07-25T08:13:18.687Z,4.38
2022-07-25T08:15:47.671Z,4.22
2022-07-25T08:18:17.171Z,3.95
2022-07-25T08:20:46.878Z,4.82
2022-07-25T08:23:14.478Z,4.28
2022-07-25T08:25:42.589Z,4.20
2022-07-25T08:28:09.558Z,4.40
2022-07-25T08:30:37.921Z,4.18
2022-07-25T08:33:10.693Z,4.40
2022-07-25T08:35:37.741Z,4.15
2022-07-25T08:38:05.042Z,3.75
2022-07-25T08:40:34.100Z,4.55
2022-07-25T08:43:01.141Z,4.22
2022-07-25T08:45:28.710Z,5.00
2022-07-25T08:47:56.730Z,4.60
2022-07-25T08:50:27.312Z,3.90
2022-07-25T08:53:04.839Z,3.88
2022-07-25T08:55:37.337Z,4.32
2022-07-25T08:58:04.214Z,4.13
2022-07-25T09:00:31.756Z,4.63
2022-07-25T09:03:01.503Z,4.40
2022-07-25T09:05:31.420Z,4.30
2022-07-25T09:08:08.189Z,4.90
2022-07-25T09:10:36.865Z,5.22
2022-07-25T09:13:07.815Z,5.07
2022-07-25T09:15:40.230Z,5.22
2022-07-25T09:18:13.281Z,4.90
2022-07-25T09:20:53.334Z,5.22
2022-07-25T09:23:39.268Z,4.97
2022-07-25T09:26:08.241Z,4.57
2022-07-25T09:28:48.270Z,4.60
2022-07-25T09:31:16.605Z,3.50
2022-07-25T09:33:56.904Z,3.17
2022-07-25T09:36:24.154Z,3.70
2022-07-25T09:39:00.916Z,3.00
2022-07-25T09:41:39.323Z,3.20
2022-07-25T09:44:17.455Z,4.00
2022-07-25T09:46:45.139Z,3.67
2022-07-25T09:49:14.671Z,3.63
2022-07-25T09:51:45.325Z,3.33
2022-07-25T09:54:12.229Z,4.00
2022-07-25T09:56:39.129Z,4.07
2022-07-25T09:59:06.971Z,4.18
2022-07-25T10:01:39.472Z,4.45
2022-07-25T10:04:24.382Z,4.30
2022-07-25T10:07:05.687Z,3.55
2022-07-25T10:09:33.134Z,4.05
2022-07-25T10:12:08.824Z,4.80
2022-07-25T10:14:37.735Z,4.35
2022-07-25T10:17:05.145Z,4.70
2022-07-25T10:19:52.915Z,3.80
2022-07-25T10:22:46.462Z,4.70
2022-07-25T10:25:19.827Z,4.22
2022-07-25T10:27:48.934Z,4.03
2022-07-25T10:30:24.355Z,4.15
2022-07-25T10:32:57.314Z,4.15
2022-07-25T10:35:25.803Z,3.85
2022-07-25T10:37:54.455Z,3.75
2022-07-25T10:40:32.125Z,4.43
2022-07-25T10:43:07.927Z,3.75
2022-07-25T10:45:39.422Z,3.50
2022-07-25T10:48:12.372Z,4.13
2022-07-25T10:50:57.631Z,4.07
2022-07-25T10:53:45.853Z,3.50
2022-07-25T10:56:50.878Z,3.22
2022-07-25T10:59:35.924Z,3.13
2022-07-25T11:02:08.569Z,3.40
2022-07-25T11:04:36.473Z,3.20
2022-07-25T11:07:15.463Z,4.88
2022-07-25T11:09:44.055Z,3.63
2022-07-25T11:12:15.601Z,3.35
2022-07-25T11:14:43.378Z,3.45
2022-07-25T11:17:22.534Z,3.13
2022-07-25T11:20:01.734Z,2.50
2022-07-25T11:22:30.298Z,3.47
2022-07-25T11:24:58.251Z,3.15
2022-07-25T11:27:33.904Z,2.80
2022-07-25T11:30:14.268Z,2.70
2022-07-25T11:32:45.527Z,2.30
2022-07-25T11:35:13.935Z,1.83
2022-07-25T11:37:43.453Z,2.13
2022-07-25T11:40:11.514Z,2.35
2022-07-25T11:42:47.756Z,2.20
2022-07-25T11:45:23.754Z,2.47
2022-07-25T11:48:14.823Z,2.42
2022-07-25T11:50:44.851Z,2.58
2022-07-25T11:53:18.553Z,3.53
2022-07-25T11:55:47.087Z,3.10
2022-07-25T11:58:14.933Z,2.83
2022-07-25T12:00:47.092Z,2.92
2022-07-25T12:03:21.061Z,3.00
2022-07-25T12:05:49.939Z,3.15
2022-07-25T12:08:23.106Z,3.80
2022-07-25T12:10:55.209Z,2.90
2022-07-25T12:13:28.133Z,3.72
2022-07-25T12:15:57.473Z,3.30
2022-07-25T12:18:24.794Z,3.60
2022-07-25T12:20:53.009Z,3.60
2022-07-25T12:23:21.743Z,2.85
2022-07-25T12:25:49.265Z,3.13
2022-07-25T12:28:16.384Z,3.03
2022-07-25T12:30:45.204Z,3.03
2022-07-25T12:33:12.951Z,2.72
2022-07-25T12:35:44.334Z,2.60
2022-07-25T12:38:11.625Z,2.60
2022-07-25T12:40:38.850Z,2.33
2022-07-25T12:43:06.041Z,2.65
2022-07-25T12:45:33.269Z,2.47
2022-07-25T12:48:00.246Z,2.90
2022-07-25T12:50:27.412Z,2.78
2022-07-25T12:52:54.726Z,2.67
2022-07-25T12:55:22.177Z,2.28
2022-07-25T12:57:49.402Z,2.67
2022-07-25T13:00:19.038Z,2.30
2022-07-25T13:02:46.208Z,2.85
2022-07-25T13:05:13.157Z,3.20
2022-07-25T13:07:40.089Z,3.47
2022-07-25T13:10:07.686Z,2.55
2022-07-25T13:12:35.670Z,2.33
2022-07-25T13:15:03.008Z,3.30
2022-07-25T13:17:31.252Z,3.55
2022-07-25T13:19:58.161Z,2.95
2022-07-25T13:22:26.412Z,2.47
2022-07-25T13:24:53.832Z,2.75
2022-07-25T13:27:21.870Z,2.40
2022-07-25T13:29:54.125Z,2.30
2022-07-25T13:32:22.371Z,2.83
2022-07-25T13:34:49.373Z,2.20
2022-07-25T13:37:16.430Z,2.42
2022-07-25T13:39:43.434Z,2.58
2022-07-25T13:42:11.232Z,2.20
2022-07-25T13:44:38.337Z,2.13
2022-07-25T13:47:05.798Z,2.30
2022-07-25T13:49:32.867Z,2.33
2022-07-25T13:51:59.761Z,2.63
2022-07-25T13:54:26.623Z,1.67
2022-07-25T13:56:53.677Z,2.10
2022-07-25T13:59:21.693Z,2.10
2022-07-25T14:01:49.967Z,1.90
2022-07-25T14:04:17.294Z,2.13
2022-07-25T14:06:44.258Z,2.20
2022-07-25T14:09:11.391Z,2.60
2022-07-25T14:11:38.451Z,2.72
2022-07-25T14:14:05.357Z,2.40
2022-07-25T14:16:33.825Z,2.90
2022-07-25T14:19:02.051Z,3.30
2022-07-25T14:21:29.284Z,3.17
2022-07-25T14:23:56.216Z,2.80
2022-07-25T14:26:23.135Z,3.70
2022-07-25T14:28:50.019Z,3.38
2022-07-25T14:31:17.424Z,3.38
2022-07-25T14:33:44.332Z,2.72
2022-07-25T14:36:11.277Z,3.40
2022-07-25T14:38:38.452Z,3.45
2022-07-25T14:41:12.124Z,3.33
2022-07-25T14:43:40.758Z,2.75
2022-07-25T14:46:08.326Z,2.92
2022-07-25T14:48:37.615Z,3.03
2022-07-25T14:51:05.788Z,3.45
2022-07-25T14:53:33.785Z,3.10
2022-07-25T14:56:02.181Z,3.90
2022-07-25T14:58:29.266Z,3.13
2022-07-25T15:00:56.201Z,3.15
2022-07-25T15:03:23.353Z,3.28
2022-07-25T15:05:50.299Z,2.88
2022-07-25T15:08:17.213Z,3.03
2022-07-25T15:10:44.175Z,2.92
2022-07-25T15:13:30.336Z,3.38
2022-07-25T15:15:58.426Z,3.10
2022-07-25T15:18:25.456Z,3.38
2022-07-25T15:20:52.379Z,3.58
2022-07-25T15:23:21.089Z,3.60
2022-07-25T15:26:04.449Z,3.30
2022-07-25T15:28:38.083Z,3.83
2022-07-25T15:31:06.527Z,3.30
2022-07-25T15:33:33.816Z,2.97
2022-07-25T15:36:00.851Z,2.95
2022-07-25T15:38:30.653Z,2.83
2022-07-25T15:40:57.930Z,3.08
2022-07-25T15:43:26.077Z,2.97
2022-07-25T15:45:53.043Z,2.83
2022-07-25T15:48:19.958Z,2.70
2022-07-25T15:50:49.626Z,3.08
2022-07-25T15:53:17.557Z,2.90
2022-07-25T15:55:44.649Z,3.63
2022-07-25T15:58:12.221Z,3.90
2022-07-25T16:00:40.512Z,3.60
2022-07-25T16:03:08.484Z,3.75
2022-07-25T16:05:37.099Z,3.70
2022-07-25T16:08:04.471Z,3.72
2022-07-25T16:10:32.782Z,3.95
2022-07-25T16:12:59.772Z,3.35
2022-07-25T16:15:27.149Z,3.78
2022-07-25T16:18:00.221Z,3.28
2022-07-25T16:20:29.084Z,3.22
2022-07-25T16:22:57.727Z,3.25
2022-07-25T16:25:25.921Z,2.90
2022-07-25T16:27:53.076Z,4.63
2022-07-25T16:30:20.671Z,2.75
2022-07-25T16:32:47.727Z,2.38
2022-07-25T16:35:15.030Z,2.67
2022-07-25T16:37:42.540Z,2.53
2022-07-25T16:40:10.011Z,3.28
2022-07-25T16:42:37.323Z,3.20
2022-07-25T16:45:04.927Z,2.88
2022-07-25T16:47:31.820Z,2.88
2022-07-25T16:49:58.726Z,3.58
2022-07-25T16:52:25.600Z,3.58
2022-07-25T16:54:52.917Z,3.28
2022-07-25T16:57:21.612Z,3.38
2022-07-25T16:59:53.338Z,3.45
2022-07-25T17:02:23.889Z,3.85
2022-07-25T17:04:54.782Z,3.45
2022-07-25T17:07:21.916Z,3.60
2022-07-25T17:09:48.781Z,3.80
2022-07-25T17:12:17.486Z,3.00
2022-07-25T17:14:45.354Z,3.25
2022-07-25T17:17:12.487Z,3.40
2022-07-25T17:19:40.008Z,2.83
2022-07-25T17:22:08.075Z,3.10
2022-07-25T17:24:35.659Z,2.90
2022-07-25T17:27:02.808Z,3.25
2022-07-25T17:29:30.082Z,2.60
2022-07-25T17:31:57.099Z,2.78
2022-07-25T17:34:26.113Z,3.08
2022-07-25T17:36:53.881Z,3.45
2022-07-25T17:39:20.878Z,3.97
2022-07-25T17:41:47.714Z,2.60
2022-07-25T17:44:14.762Z,2.88
2022-07-25T17:46:42.034Z,3.60
2022-07-25T17:49:09.728Z,3.55
2022-07-25T17:51:36.876Z,3.95
2022-07-25T17:54:04.040Z,3.53
2022-07-25T17:56:31.111Z,3.45
2022-07-25T17:58:58.031Z,3.38
2022-07-25T18:01:24.968Z,3.38
2022-07-25T18:03:51.905Z,3.55
2022-07-25T18:06:18.892Z,3.38
2022-07-25T18:08:45.944Z,2.88
2022-07-25T18:11:12.807Z,2.97
2022-07-25T18:13:39.784Z,3.20
2022-07-25T18:16:08.851Z,3.30
2022-07-25T18:18:35.969Z,3.17
2022-07-25T18:21:02.912Z,2.72
2022-07-25T18:23:30.642Z,2.90
2022-07-25T18:25:57.565Z,3.25
2022-07-25T18:28:25.090Z,3.42
2022-07-25T18:30:52.397Z,3.50
2022-07-25T18:33:20.291Z,3.78
2022-07-25T18:35:47.211Z,4.00
2022-07-25T18:38:14.195Z,3.92
2022-07-25T18:40:41.132Z,3.92
2022-07-25T18:43:08.222Z,3.83
2022-07-25T18:45:39.154Z,4.40
2022-07-25T18:48:06.928Z,3.78
2022-07-25T18:50:34.018Z,3.95
2022-07-25T18:53:00.971Z,3.42
2022-07-25T18:55:28.114Z,3.83
2022-07-25T18:57:55.224Z,3.72
2022-07-25T19:00:22.219Z,3.88
2022-07-25T19:02:49.087Z,4.30
2022-07-25T19:05:16.235Z,3.45
2022-07-25T19:07:43.732Z,3.33
2022-07-25T19:10:11.429Z,4.70
2022-07-25T19:12:38.793Z,3.17
2022-07-25T19:15:06.538Z,3.85
2022-07-25T19:17:34.692Z,3.33
2022-07-25T19:20:01.960Z,3.97
2022-07-25T19:22:28.885Z,3.65
2022-07-25T19:24:55.742Z,4.38
2022-07-25T19:27:25.786Z,4.47
2022-07-25T19:29:54.128Z,4.15
2022-07-25T19:32:22.486Z,3.85
2022-07-25T19:34:49.722Z,4.07
2022-07-25T19:37:16.861Z,4.13
2022-07-25T19:39:43.735Z,4.13
2022-07-25T19:42:12.286Z,3.75
2022-07-25T19:44:39.363Z,3.30
2022-07-25T19:47:11.296Z,3.53
2022-07-25T19:49:40.107Z,4.53
2022-07-25T19:52:08.341Z,4.45
2022-07-25T19:54:35.370Z,4.28
2022-07-25T19:57:02.715Z,5.40
2022-07-25T19:59:29.787Z,4.82
2022-07-25T20:01:56.883Z,5.22
2022-07-25T20:04:24.087Z,5.03
2022-07-25T20:06:50.943Z,4.90
2022-07-25T20:09:18.031Z,4.63
2022-07-25T20:11:45.415Z,4.65
2022-07-25T20:14:12.489Z,5.22
2022-07-25T20:16:40.182Z,4.10
2022-07-25T20:19:09.646Z,4.05
2022-07-25T20:21:37.751Z,4.25
2022-07-25T20:24:04.968Z,3.63
2022-07-25T20:26:32.254Z,3.42
2022-07-25T20:28:59.360Z,4.10
2022-07-25T20:31:26.304Z,3.70
2022-07-25T20:33:53.444Z,3.70
2022-07-25T20:36:20.581Z,3.63
2022-07-25T20:38:47.639Z,3.45
2022-07-25T20:41:15.561Z,3.70
2022-07-25T20:43:42.840Z,3.63
2022-07-25T20:46:09.829Z,3.13
2022-07-25T20:48:36.950Z,3.75
2022-07-25T20:51:04.341Z,3.38
2022-07-25T20:53:31.334Z,3.53
2022-07-25T20:55:58.550Z,4.20
2022-07-25T20:58:25.580Z,4.38
2022-07-25T21:00:52.644Z,4.00
2022-07-25T21:03:19.703Z,3.78
2022-07-25T21:05:46.824Z,4.03
2022-07-25T21:08:15.212Z,3.83
2022-07-25T21:10:42.433Z,3.85
2022-07-25T21:13:09.601Z,4.32
2022-07-25T21:15:37.326Z,4.13
2022-07-25T21:18:04.412Z,3.67
2022-07-25T21:20:31.321Z,4.53
2022-07-25T21:22:58.208Z,3.70
2022-07-25T21:25:25.246Z,3.85
2022-07-25T21:27:52.183Z,4.32
2022-07-25T21:30:19.129Z,5.00
2022-07-25T21:32:46.204Z,5.55
2022-07-25T21:35:13.101Z,5.03
2022-07-25T21:37:40.159Z,4.15
2022-07-25T21:40:07.881Z,5.18
2022-07-25T21:42:36.143Z,4.65
2022-07-25T21:45:03.460Z,4.68
2022-07-25T21:47:30.457Z,4.25
2022-07-25T21:50:19.307Z,4.53
2022-07-25T21:52:52.966Z,4.55
2022-07-25T21:55:21.329Z,4.80
2022-07-25T21:57:48.948Z,4.78
2022-07-25T22:00:16.172Z,5.32
2022-07-25T22:02:44.015Z,5.13
2022-07-25T22:05:12.124Z,4.70
2022-07-25T22:07:39.494Z,5.50
2022-07-25T22:10:08.322Z,5.10
2022-07-25T22:12:35.276Z,5.38
2022-07-25T22:15:02.225Z,5.25
2022-07-25T22:17:29.127Z,4.47
2022-07-25T22:20:16.221Z,4.75
2022-07-25T22:22:43.128Z,5.88
2022-07-25T22:25:10.065Z,6.20
2022-07-25T22:27:36.937Z,5.40
2022-07-25T22:30:05.066Z,5.50
2022-07-25T22:32:32.009Z,6.63
2022-07-25T22:34:58.931Z,5.07
2022-07-25T22:37:25.770Z,5.63
2022-07-25T22:39:56.508Z,5.30
2022-07-25T22:42:26.013Z,5.95
2022-07-25T22:44:52.897Z,5.47
2022-07-25T22:47:20.492Z,6.18
2022-07-25T22:49:47.571Z,6.53
2022-07-25T22:52:14.552Z,5.75
2022-07-25T22:54:41.473Z,5.80
2022-07-25T22:57:08.414Z,6.80
2022-07-25T22:59:35.264Z,6.40
2022-07-25T23:02:02.161Z,5.85
2022-07-25T23:04:29.096Z,5.95
2022-07-25T23:06:56.118Z,7.50
2022-07-25T23:09:23.528Z,6.00
2022-07-25T23:11:50.623Z,5.65
2022-07-25T23:14:17.513Z,5.57
2022-07-25T23:16:44.458Z,6.07
2022-07-25T23:19:11.472Z,5.15
2022-07-25T23:21:39.077Z,5.80
2022-07-25T23:24:06.251Z,5.97
2022-07-25T23:26:33.230Z,6.22
2022-07-25T23:29:00.100Z,6.25
2022-07-25T23:31:27.039Z,5.18
2022-07-25T23:33:54.181Z,5.45
2022-07-25T23:36:21.081Z,7.25
2022-07-25T23:38:47.917Z,5.47
2022-07-25T23:41:14.809Z,5.03
2022-07-25T23:43:56.349Z,5.70
2022-07-25T23:46:29.326Z,6.20
2022-07-25T23:48:58.845Z,6.05
2022-07-25T23:51:26.591Z,5.63
2022-07-25T23:53:53.677Z,4.22
2022-07-25T23:56:21.368Z,3.20
2022-07-25T23:58:50.211Z,3.75
